Дата Пункты Температура Давл., мм. Влажн., % Ветер Погодные явления
Воздуха Воды Направл. Скорость
13.12.18 05:00 Одесса 1.0 5.0 758 95 З 2 17 ГОДИН
13.12.18 02:00 Одесса 1.0 5.0 757 83 З 3 02 ГОДИНИ
12.12.18 08:00 Одесса -1.0 5.0 757 88 З 2 20 ГОДИН
12.12.18 05:00 Одесса 2.0 5.0 757 80 Пн-З 2 17 ГОДИН
12.12.18 02:00 Одесса 3.0 5.0 756 77 Пн-З 2 14 ГОДИН
12.12.18 11:00 Одесса 2.0 5.0 756 79 Пн-З 3 11 ГОДИН
12.12.18 02:00 Одесса 2.0 6.0 755 81 Пн-З 3 02 ГОДИНИ
11.12.18 11:00 Одесса 2.0 33.0 755 84 Пн-З 4 23 ГОДИНИ
11.12.18 08:00 Одесса 2.0 33.0 755 87 Пн-З 2 20 ГОДИН
11.12.18 05:00 Одесса 2.0 5.0 754 88 Пн-З 4 17 ГОДИН
11.12.18 02:00 Одесса 2.0 5.0 753 92 Пн 3 14 ГОДИН
11.12.18 08:00 Одесса -1.0 6.0 753 97 Пн 3 08 ГОДИН
11.12.18 05:00 Одесса -1.0 5.0 752 97 Пн 3 05 ГОДИН
11.12.18 02:00 Одесса -1.0 5.0 753 100 Пн 2 02 ГОДИНИ
10.12.18 08:00 Одесса 1.0 5.0 752 100 Пн-З 1 20 ГОДИН
10.12.18 05:00 Одесса 2.0 6.0 752 97 Пн 0 17 ГОДИН
10.12.18 02:00 Одесса 2.0 6.0 751 96 З 1 14 ГОДИН
10.12.18 11:00 Одесса 3.0 6.0 751 97 Пн 1 11 ГОДИН
10.12.18 08:00 Одесса 3.0 6.0 751 96 С 1 08 ГОДИН
10.12.18 05:00 Одесса 3.0 6.0 751 96 Пн 2 05 ГОДИН
Количество строк
1 2 3 4 5 6 7 8 9 10
Page 1 of 436